createdAt,value
2022-09-03T00:02:04.284Z,4.03
2022-09-03T00:05:05.426Z,8.50
2022-09-03T00:07:40.132Z,7.00
2022-09-03T00:10:13.235Z,11.38
2022-09-03T00:12:44.787Z,11.98
2022-09-03T00:15:20.353Z,8.82
2022-09-03T00:17:57.916Z,4.15
2022-09-03T00:20:30.580Z,5.13
2022-09-03T00:23:01.451Z,5.72
2022-09-03T00:25:53.921Z,7.20
2022-09-03T00:28:26.313Z,11.63
2022-09-03T00:31:21.388Z,8.52
2022-09-03T00:33:48.693Z,11.82
2022-09-03T00:36:20.894Z,14.18
2022-09-03T00:38:47.797Z,10.13
2022-09-03T00:41:48.973Z,12.63
2022-09-03T00:44:31.220Z,13.55
2022-09-03T00:47:07.271Z,12.10
2022-09-03T00:49:56.118Z,13.15
2022-09-03T00:52:36.163Z,12.20
2022-09-03T00:55:03.257Z,12.93
2022-09-03T00:57:42.285Z,12.70
2022-09-03T01:00:15.630Z,12.70
2022-09-03T01:03:08.079Z,11.88
2022-09-03T01:06:03.585Z,13.30
2022-09-03T01:09:02.798Z,7.63
2022-09-03T01:11:51.563Z,13.85
2022-09-03T01:14:54.829Z,11.90
2022-09-03T01:18:04.032Z,18.38
2022-09-03T01:20:55.216Z,20.67
2022-09-03T01:23:22.354Z,24.95
2022-09-03T01:25:55.866Z,39.72
2022-09-03T01:28:40.538Z,25.58
2022-09-03T01:31:27.011Z,22.65
2022-09-03T01:34:04.580Z,8.98
2022-09-03T01:36:40.469Z,6.55
2022-09-03T01:39:14.173Z,5.18
2022-09-03T01:42:20.316Z,6.05
2022-09-03T01:45:01.868Z,7.97
2022-09-03T01:47:35.069Z,9.00
2022-09-03T01:50:07.797Z,7.03
2022-09-03T01:52:57.935Z,7.20
2022-09-03T01:55:44.545Z,5.10
2022-09-03T01:58:33.778Z,8.30
2022-09-03T02:01:05.736Z,5.70
2022-09-03T02:03:41.204Z,4.88
2022-09-03T02:06:12.761Z,5.10
2022-09-03T02:08:40.181Z,6.25
2022-09-03T02:11:09.268Z,5.47
2022-09-03T02:13:40.174Z,5.07
2022-09-03T02:16:16.954Z,3.50
2022-09-03T02:18:51.311Z,4.30
2022-09-03T02:21:20.400Z,3.95
2022-09-03T02:23:48.558Z,6.30
2022-09-03T02:26:19.396Z,4.53
2022-09-03T02:28:46.288Z,5.45
2022-09-03T02:31:13.401Z,7.22
2022-09-03T02:33:43.059Z,4.65
2022-09-03T02:36:12.157Z,5.70
2022-09-03T02:38:41.825Z,5.18
2022-09-03T02:41:09.105Z,3.92
2022-09-03T02:43:44.918Z,5.45
2022-09-03T02:46:22.764Z,5.22
2022-09-03T02:48:49.961Z,5.20
2022-09-03T02:51:17.070Z,8.60
2022-09-03T02:53:44.560Z,7.45
2022-09-03T02:56:12.110Z,5.65
2022-09-03T02:58:39.241Z,3.60
2022-09-03T03:01:06.272Z,4.53
2022-09-03T03:03:33.485Z,6.18
2022-09-03T03:06:04.896Z,5.72
2022-09-03T03:08:34.056Z,3.88
2022-09-03T03:11:02.114Z,6.07
2022-09-03T03:13:30.864Z,4.18
2022-09-03T03:15:59.284Z,4.10
2022-09-03T03:18:26.484Z,7.28
2022-09-03T03:20:53.812Z,5.03
2022-09-03T03:23:21.482Z,5.57
2022-09-03T03:25:48.782Z,7.82
2022-09-03T03:28:15.792Z,5.80
2022-09-03T03:30:43.115Z,4.07
2022-09-03T03:33:10.449Z,4.82
2022-09-03T03:35:37.664Z,4.72
2022-09-03T03:38:05.204Z,5.68
2022-09-03T03:40:32.270Z,4.85
2022-09-03T03:42:59.350Z,3.90
2022-09-03T03:45:26.432Z,4.85
2022-09-03T03:47:57.679Z,5.75
2022-09-03T03:50:25.644Z,4.22
2022-09-03T03:52:52.560Z,4.22
2022-09-03T03:55:19.665Z,6.55
2022-09-03T03:57:47.202Z,7.03
2022-09-03T04:00:15.193Z,4.13
2022-09-03T04:02:42.452Z,8.75
2022-09-03T04:05:09.739Z,6.53
2022-09-03T04:07:37.329Z,5.93
2022-09-03T04:10:04.833Z,3.63
2022-09-03T04:12:31.800Z,8.93
2022-09-03T04:14:58.700Z,5.88
2022-09-03T04:17:26.299Z,5.43
2022-09-03T04:19:53.225Z,5.85
2022-09-03T04:22:20.834Z,6.07
2022-09-03T04:24:47.897Z,6.53
2022-09-03T04:27:14.834Z,9.63
2022-09-03T04:29:41.781Z,4.70
2022-09-03T04:32:27.310Z,5.80
2022-09-03T04:34:54.192Z,4.53
2022-09-03T04:37:21.321Z,5.03
2022-09-03T04:39:48.275Z,3.95
2022-09-03T04:42:15.197Z,7.57
2022-09-03T04:44:42.738Z,4.90
2022-09-03T04:47:09.793Z,5.10
2022-09-03T04:49:36.756Z,3.92
2022-09-03T04:52:04.000Z,8.70
2022-09-03T04:54:31.878Z,6.53
2022-09-03T04:56:58.772Z,6.10
2022-09-03T04:59:25.901Z,6.45
2022-09-03T05:01:52.909Z,6.32
2022-09-03T05:04:20.032Z,7.05
2022-09-03T05:06:47.123Z,9.57
2022-09-03T05:09:14.160Z,10.15
2022-09-03T05:11:41.117Z,8.77
2022-09-03T05:14:11.865Z,12.05
2022-09-03T05:16:39.099Z,9.10
2022-09-03T05:19:06.187Z,9.77
2022-09-03T05:21:33.773Z,11.27
2022-09-03T05:24:01.667Z,10.32
2022-09-03T05:26:34.315Z,11.48
2022-09-03T05:29:04.395Z,9.68
2022-09-03T05:31:32.032Z,10.82
2022-09-03T05:34:00.659Z,9.73
2022-09-03T05:36:30.200Z,9.20
2022-09-03T05:38:58.913Z,9.07
2022-09-03T05:41:27.148Z,7.93
2022-09-03T05:43:56.023Z,7.18
2022-09-03T05:46:28.122Z,10.38
2022-09-03T05:48:55.259Z,10.70
2022-09-03T05:51:22.406Z,10.27
2022-09-03T05:53:49.724Z,5.80
2022-09-03T05:56:18.889Z,6.72
2022-09-03T05:58:48.328Z,7.82
2022-09-03T06:01:21.946Z,8.73
2022-09-03T06:03:57.875Z,11.38
2022-09-03T06:06:26.143Z,7.63
2022-09-03T06:08:55.229Z,11.00
2022-09-03T06:11:26.746Z,5.72
2022-09-03T06:13:55.417Z,10.40
2022-09-03T06:16:27.205Z,7.35
2022-09-03T06:19:00.653Z,6.05
2022-09-03T06:21:28.759Z,7.50
2022-09-03T06:23:59.725Z,7.82
2022-09-03T06:26:29.268Z,5.45
2022-09-03T06:28:57.330Z,6.18
2022-09-03T06:31:25.069Z,9.90
2022-09-03T06:33:53.750Z,9.02
2022-09-03T06:36:22.709Z,8.00
2022-09-03T06:38:55.585Z,8.10
2022-09-03T06:41:28.051Z,8.50
2022-09-03T06:44:04.562Z,10.13
2022-09-03T06:46:34.919Z,8.93
2022-09-03T06:49:02.135Z,18.75
2022-09-03T06:51:30.545Z,15.98
2022-09-03T06:54:04.288Z,10.57
2022-09-03T06:56:37.382Z,12.82
2022-09-03T06:59:13.689Z,12.82
2022-09-03T07:01:43.656Z,14.88
2022-09-03T07:04:13.129Z,15.75
2022-09-03T07:06:42.096Z,12.15
2022-09-03T07:09:10.619Z,12.00
2022-09-03T07:11:39.212Z,18.05
2022-09-03T07:14:06.095Z,13.75
2022-09-03T07:16:35.525Z,19.85
2022-09-03T07:19:04.728Z,17.83
2022-09-03T07:21:34.156Z,15.60
2022-09-03T07:24:01.110Z,16.80
2022-09-03T07:26:30.611Z,14.25
2022-09-03T07:28:58.318Z,18.60
2022-09-03T07:31:32.071Z,12.82
2022-09-03T07:34:10.101Z,15.20
2022-09-03T07:36:43.106Z,16.23
2022-09-03T07:39:12.364Z,12.88
2022-09-03T07:41:43.331Z,11.23
2022-09-03T07:44:10.598Z,17.48
2022-09-03T07:46:39.271Z,14.10
2022-09-03T07:49:06.539Z,13.15
2022-09-03T07:51:35.912Z,13.35
2022-09-03T07:54:06.991Z,14.82
2022-09-03T07:56:35.914Z,11.32
2022-09-03T07:59:04.025Z,11.15
2022-09-03T08:01:32.860Z,10.93
2022-09-03T08:04:00.539Z,16.50
2022-09-03T08:06:28.608Z,11.00
2022-09-03T08:09:05.060Z,11.05
2022-09-03T08:11:36.296Z,6.25
2022-09-03T08:14:13.945Z,9.82
2022-09-03T08:16:43.367Z,9.60
2022-09-03T08:19:12.101Z,9.07
2022-09-03T08:21:41.864Z,5.07
2022-09-03T08:24:09.101Z,5.10
2022-09-03T08:26:38.194Z,4.47
2022-09-03T08:29:06.197Z,7.30
2022-09-03T08:31:34.386Z,7.80
2022-09-03T08:34:06.789Z,7.05
2022-09-03T08:36:38.721Z,7.05
2022-09-03T08:39:10.963Z,8.13
2022-09-03T08:41:53.265Z,8.35
2022-09-03T08:44:47.187Z,8.85
2022-09-03T08:47:23.078Z,24.10
2022-09-03T08:49:59.928Z,11.77
2022-09-03T08:52:33.235Z,14.07
2022-09-03T08:55:27.457Z,9.52
2022-09-03T08:58:16.305Z,5.38
2022-09-03T09:00:49.629Z,8.40
2022-09-03T09:03:48.659Z,4.43
2022-09-03T09:06:27.893Z,4.97
2022-09-03T09:09:13.609Z,7.43
2022-09-03T09:11:59.678Z,6.47
2022-09-03T09:14:45.906Z,3.45
2022-09-03T09:17:22.404Z,4.15
2022-09-03T09:20:16.866Z,4.18
2022-09-03T09:22:47.624Z,3.67
2022-09-03T09:25:22.510Z,10.77
2022-09-03T09:28:17.400Z,4.38
2022-09-03T09:30:47.633Z,2.17
2022-09-03T09:33:16.505Z,5.07
2022-09-03T09:35:44.208Z,3.97
2022-09-03T09:38:12.185Z,8.40
2022-09-03T09:40:45.135Z,5.47
2022-09-03T09:43:16.677Z,2.50
2022-09-03T09:45:46.945Z,32.33
2022-09-03T09:48:31.562Z,1.73
2022-09-03T09:51:06.335Z,2.45
2022-09-03T09:53:35.153Z,4.07
2022-09-03T09:56:03.244Z,4.15
2022-09-03T09:58:32.042Z,2.10
2022-09-03T10:01:13.465Z,5.93
2022-09-03T10:03:51.486Z,4.80
2022-09-03T10:06:36.930Z,9.85
2022-09-03T10:09:12.095Z,5.65
2022-09-03T10:11:42.739Z,11.93
2022-09-03T10:14:32.627Z,2.72
2022-09-03T10:17:24.927Z,4.53
2022-09-03T10:20:37.349Z,5.22
2022-09-03T10:23:25.790Z,3.35
2022-09-03T10:26:15.282Z,3.33
2022-09-03T10:28:43.248Z,2.17
2022-09-03T10:31:13.751Z,4.85
2022-09-03T10:33:55.492Z,5.07
2022-09-03T10:36:37.145Z,1.30
2022-09-03T10:39:29.040Z,3.22
2022-09-03T10:42:08.486Z,3.72
2022-09-03T10:44:38.799Z,3.90
2022-09-03T10:47:57.725Z,2.53
2022-09-03T10:50:29.241Z,2.55
2022-09-03T10:52:59.983Z,2.30
2022-09-03T10:55:42.361Z,3.38
2022-09-03T10:58:38.258Z,4.00
2022-09-03T11:01:11.205Z,3.28
2022-09-03T11:04:07.637Z,3.75
2022-09-03T11:06:47.104Z,1.35
2022-09-03T11:09:35.948Z,4.15
2022-09-03T11:12:17.782Z,2.85
2022-09-03T11:14:47.229Z,3.33
2022-09-03T11:17:25.460Z,3.72
2022-09-03T11:20:11.819Z,2.58
2022-09-03T11:22:39.375Z,3.63
2022-09-03T11:25:07.671Z,1.77
2022-09-03T11:27:56.411Z,3.00
2022-09-03T11:30:34.442Z,2.40
2022-09-03T11:33:07.864Z,2.70
2022-09-03T11:35:34.987Z,2.35
2022-09-03T11:38:03.210Z,5.78
2022-09-03T11:40:39.479Z,2.72
2022-09-03T11:43:13.065Z,4.30
2022-09-03T11:45:40.458Z,3.00
2022-09-03T11:48:38.294Z,6.47
2022-09-03T11:51:21.429Z,3.60
2022-09-03T11:53:59.179Z,2.40
2022-09-03T11:56:26.479Z,4.35
2022-09-03T11:59:17.786Z,9.65
2022-09-03T12:01:59.067Z,5.03
2022-09-03T12:04:37.022Z,7.03
2022-09-03T12:07:41.565Z,3.72
2022-09-03T12:10:11.700Z,4.90
2022-09-03T12:13:17.083Z,3.13
2022-09-03T12:16:08.725Z,2.63
2022-09-03T12:18:37.137Z,3.05
2022-09-03T12:21:08.488Z,6.55
2022-09-03T12:23:50.066Z,2.30
2022-09-03T12:26:20.007Z,6.53
2022-09-03T12:28:52.007Z,2.03
2022-09-03T12:31:30.708Z,7.10
2022-09-03T12:34:03.562Z,7.72
2022-09-03T12:36:45.772Z,3.22
2022-09-03T12:39:15.872Z,3.20
2022-09-03T12:42:03.836Z,4.13
2022-09-03T12:44:35.135Z,2.50
2022-09-03T12:49:56.943Z,4.53
2022-09-03T12:52:42.026Z,1.63
2022-09-03T12:55:41.698Z,3.38
2022-09-03T12:58:24.791Z,4.13
2022-09-03T13:01:13.541Z,2.00
2022-09-03T13:03:59.739Z,2.00
2022-09-03T13:06:31.475Z,3.63
2022-09-03T13:09:03.843Z,3.45
2022-09-03T13:11:34.303Z,5.03
2022-09-03T13:14:10.244Z,2.45
2022-09-03T13:16:49.215Z,1.67
2022-09-03T13:19:36.547Z,2.17
2022-09-03T13:22:15.393Z,1.73
2022-09-03T13:25:20.280Z,2.08
2022-09-03T13:27:54.119Z,3.33
2022-09-03T13:30:23.419Z,1.85
2022-09-03T13:32:59.484Z,2.90
2022-09-03T13:35:50.026Z,7.30
2022-09-03T13:38:23.123Z,5.25
2022-09-03T13:40:58.766Z,5.55
2022-09-03T13:43:53.869Z,4.40
2022-09-03T13:46:42.217Z,4.18
2022-09-03T13:49:36.355Z,10.98
2022-09-03T13:52:08.779Z,9.43
2022-09-03T13:54:49.181Z,4.72
2022-09-03T13:57:22.950Z,6.97
2022-09-03T13:59:58.390Z,6.28
2022-09-03T14:02:33.568Z,4.65
2022-09-03T14:05:25.200Z,6.93
2022-09-03T14:08:02.489Z,8.50
2022-09-03T14:10:53.735Z,8.23
2022-09-03T14:13:20.909Z,7.57
2022-09-03T14:16:14.362Z,8.75
2022-09-03T14:19:04.006Z,7.93
2022-09-03T14:21:39.161Z,6.28
2022-09-03T14:24:31.836Z,5.38
2022-09-03T14:27:02.383Z,3.90
2022-09-03T14:29:34.437Z,7.35
2022-09-03T14:32:27.706Z,7.30
2022-09-03T14:35:07.003Z,6.97
2022-09-03T14:37:55.327Z,6.40
2022-09-03T14:40:30.767Z,8.40
2022-09-03T14:43:45.791Z,7.30
2022-09-03T14:46:38.756Z,7.38
2022-09-03T14:49:20.956Z,7.20
2022-09-03T14:51:51.155Z,6.18
2022-09-03T14:54:45.803Z,7.15
2022-09-03T14:57:40.862Z,7.88
2022-09-03T15:00:20.175Z,10.50
2022-09-03T15:03:22.817Z,9.35
2022-09-03T15:05:58.761Z,9.00
2022-09-03T15:08:40.697Z,5.68
2022-09-03T15:11:29.842Z,7.32
2022-09-03T15:14:20.298Z,7.18
2022-09-03T15:16:56.093Z,8.82
2022-09-03T15:19:36.918Z,8.80
2022-09-03T15:22:35.234Z,6.68
2022-09-03T15:25:32.072Z,12.80
2022-09-03T15:28:07.655Z,113.13
2022-09-03T15:30:47.443Z,173.25
2022-09-03T15:33:30.835Z,145.13
2022-09-03T15:36:12.537Z,112.97
2022-09-03T15:38:51.128Z,50.00
2022-09-03T15:41:28.437Z,13.57
2022-09-03T15:43:59.744Z,12.63
2022-09-03T15:46:29.952Z,10.05
2022-09-03T15:49:02.847Z,7.35
2022-09-03T15:51:36.091Z,9.65
2022-09-03T15:54:19.568Z,9.35
2022-09-03T15:56:52.799Z,14.70
2022-09-03T15:59:40.511Z,12.98
2022-09-03T16:02:12.766Z,20.20
2022-09-03T16:04:48.973Z,16.23
2022-09-03T16:07:38.050Z,11.25
2022-09-03T16:10:26.808Z,12.48
2022-09-03T16:13:25.489Z,15.30
2022-09-03T16:16:43.696Z,10.00
2022-09-03T16:19:22.705Z,15.90
2022-09-03T16:22:00.523Z,11.60
2022-09-03T16:24:30.275Z,13.93
2022-09-03T16:27:21.840Z,12.80
2022-09-03T16:30:03.279Z,19.55
2022-09-03T16:32:54.260Z,15.40
2022-09-03T16:35:27.776Z,13.48
2022-09-03T16:38:13.410Z,16.13
2022-09-03T16:41:03.978Z,22.73
2022-09-03T16:43:50.534Z,16.05
2022-09-03T16:46:20.396Z,10.13
2022-09-03T16:49:26.908Z,11.85
2022-09-03T16:52:10.612Z,12.13
2022-09-03T16:54:44.225Z,10.60
2022-09-03T16:57:37.661Z,8.80
2022-09-03T17:00:14.690Z,15.38
2022-09-03T17:03:26.039Z,10.43
2022-09-03T17:06:08.258Z,8.70
2022-09-03T17:08:53.613Z,11.95
2022-09-03T17:11:38.832Z,11.57
2022-09-03T17:14:18.656Z,12.13
2022-09-03T17:17:03.881Z,11.40
2022-09-03T17:19:43.630Z,13.23
2022-09-03T17:22:16.449Z,10.13
2022-09-03T17:24:52.672Z,11.52
2022-09-03T17:27:31.800Z,7.35
2022-09-03T17:30:24.059Z,8.73
2022-09-03T17:33:08.142Z,11.10
2022-09-03T17:35:46.608Z,7.55
2022-09-03T17:38:38.070Z,9.40
2022-09-03T17:41:13.957Z,10.18
2022-09-03T17:44:06.543Z,11.52
2022-09-03T17:47:04.549Z,8.27
2022-09-03T17:49:44.858Z,12.18
2022-09-03T17:52:39.233Z,21.40
2022-09-03T17:55:30.996Z,13.50
2022-09-03T17:58:26.438Z,12.63
2022-09-03T18:01:01.318Z,25.67
2022-09-03T18:03:40.152Z,22.92
2022-09-03T18:06:10.646Z,22.17
2022-09-03T18:08:46.256Z,19.45
2022-09-03T18:11:29.389Z,19.42
2022-09-03T18:14:24.587Z,14.18
2022-09-03T18:17:03.229Z,17.40
2022-09-03T18:20:06.959Z,18.30
2022-09-03T18:23:14.975Z,12.10
2022-09-03T18:26:04.867Z,11.20
2022-09-03T18:29:01.744Z,11.68
2022-09-03T18:31:47.371Z,16.60
2022-09-03T18:34:33.043Z,13.70
2022-09-03T18:37:18.645Z,20.25
2022-09-03T18:40:05.311Z,24.25
2022-09-03T18:43:20.229Z,26.23
2022-09-03T18:47:47.475Z,25.92
2022-09-03T18:49:51.986Z,15.55
2022-09-03T18:52:44.231Z,13.50
2022-09-03T18:55:52.972Z,14.60
2022-09-03T18:58:54.968Z,11.18
2022-09-03T19:01:53.768Z,7.88
2022-09-03T19:04:48.613Z,11.70
2022-09-03T19:07:39.867Z,12.95
2022-09-03T19:10:44.143Z,9.85
2022-09-03T19:13:30.034Z,10.45
2022-09-03T19:16:18.725Z,7.88
2022-09-03T19:19:19.949Z,7.97
2022-09-03T19:22:09.925Z,9.20
2022-09-03T19:24:55.815Z,12.75
2022-09-03T19:27:56.916Z,14.00
2022-09-03T19:30:50.417Z,28.00
2022-09-03T19:33:39.489Z,56.30
2022-09-03T19:36:43.701Z,64.35
2022-09-03T19:39:47.744Z,55.45
2022-09-03T19:43:21.388Z,45.03
2022-09-03T19:46:21.800Z,46.08
2022-09-03T19:49:30.177Z,66.85
2022-09-03T19:52:15.983Z,58.35
2022-09-03T19:55:01.390Z,72.80
2022-09-03T19:57:47.800Z,67.28
2022-09-03T20:00:33.617Z,49.08
2022-09-03T20:03:20.463Z,43.83
2022-09-03T20:06:10.747Z,45.55
2022-09-03T20:08:57.232Z,35.13
2022-09-03T20:11:27.797Z,33.75
2022-09-03T20:14:13.785Z,32.58
2022-09-03T20:17:03.393Z,45.05
2022-09-03T20:19:55.132Z,61.92
2022-09-03T20:22:40.614Z,87.38
2022-09-03T20:25:47.386Z,93.35
2022-09-03T20:28:46.212Z,74.60
2022-09-03T20:31:25.184Z,60.90
2022-09-03T20:34:01.112Z,50.03
2022-09-03T20:37:05.606Z,37.80
2022-09-03T20:39:54.069Z,30.08
2022-09-03T20:42:39.379Z,23.15
2022-09-03T20:45:23.304Z,28.77
2022-09-03T20:48:05.764Z,21.65
2022-09-03T20:50:53.364Z,23.38
2022-09-03T20:53:45.425Z,26.67
2022-09-03T20:56:24.967Z,28.90
2022-09-03T20:59:01.231Z,20.73
2022-09-03T21:01:34.393Z,21.73
2022-09-03T21:04:31.928Z,25.23
2022-09-03T21:07:22.398Z,24.55
2022-09-03T21:10:27.844Z,25.73
2022-09-03T21:13:11.789Z,40.58
2022-09-03T21:15:56.503Z,41.75
2022-09-03T21:18:33.233Z,38.75
2022-09-03T21:21:27.663Z,40.38
2022-09-03T21:24:08.814Z,30.88
2022-09-03T21:26:41.874Z,30.73
2022-09-03T21:29:13.524Z,34.10
2022-09-03T21:32:39.683Z,27.27
2022-09-03T21:35:18.209Z,32.83
2022-09-03T21:37:51.351Z,37.45
2022-09-03T21:40:24.480Z,29.92
2022-09-03T21:42:59.924Z,34.65
2022-09-03T21:45:39.296Z,44.83
2022-09-03T21:48:09.494Z,40.25
2022-09-03T21:50:45.704Z,40.03
2022-09-03T21:53:38.932Z,45.67
2022-09-03T21:56:25.240Z,50.47
2022-09-03T21:59:08.292Z,37.65
2022-09-03T22:01:49.788Z,51.38
2022-09-03T22:04:16.725Z,14.18
2022-09-03T22:07:11.048Z,20.02
2022-09-03T22:09:55.052Z,11.45
2022-09-03T22:12:41.038Z,19.02
2022-09-03T22:15:13.339Z,19.75
2022-09-03T22:17:47.088Z,21.50
2022-09-03T22:20:15.935Z,20.92
2022-09-03T22:22:58.329Z,19.75
2022-09-03T22:25:58.982Z,26.42
2022-09-03T22:28:40.761Z,22.95
2022-09-03T22:31:21.689Z,22.58
2022-09-03T22:34:02.853Z,19.35
2022-09-03T22:36:54.486Z,16.20
2022-09-03T22:39:27.675Z,18.70
2022-09-03T22:42:23.715Z,14.70
2022-09-03T22:45:21.336Z,15.52
2022-09-03T22:48:20.319Z,27.20
2022-09-03T22:50:57.205Z,21.30
2022-09-03T22:53:50.091Z,16.10
2022-09-03T22:56:22.043Z,14.75
2022-09-03T22:58:52.959Z,9.82
2022-09-03T23:01:25.382Z,14.05
2022-09-03T23:04:04.419Z,12.05
2022-09-03T23:06:39.183Z,10.45
2022-09-03T23:09:15.909Z,10.93
2022-09-03T23:11:47.978Z,9.82
2022-09-03T23:14:22.514Z,8.52
2022-09-03T23:16:56.682Z,8.60
2022-09-03T23:19:50.385Z,19.75
2022-09-03T23:22:28.029Z,14.68
2022-09-03T23:25:36.427Z,26.13
2022-09-03T23:28:24.263Z,32.65
2022-09-03T23:30:51.768Z,41.47
2022-09-03T23:33:18.930Z,43.50
2022-09-03T23:35:55.248Z,52.30
2022-09-03T23:38:38.300Z,40.63
2022-09-03T23:41:07.937Z,30.75
2022-09-03T23:43:42.840Z,30.27
2022-09-03T23:46:32.818Z,25.63
2022-09-03T23:49:16.604Z,31.42
2022-09-03T23:51:46.486Z,32.85
2022-09-03T23:54:13.906Z,53.45
2022-09-03T23:57:07.292Z,53.40
2022-09-03T23:59:46.553Z,51.05
